createdAt,value
2019-04-14T13:06:50.849Z,27.60
2019-04-14T13:09:20.105Z,28.80
2019-04-14T13:11:49.580Z,29.30
2019-04-14T13:17:47.549Z,28.40
2019-04-14T13:23:45.725Z,28.30
2019-04-14T13:26:14.615Z,28.90
2019-04-14T13:28:43.776Z,28.90
2019-04-14T13:31:12.801Z,28.00
2019-04-14T13:33:41.816Z,27.50
2019-04-14T13:36:10.893Z,27.50
2019-04-14T13:38:39.963Z,28.80
2019-04-14T13:41:09.119Z,28.60
2019-04-14T13:43:38.508Z,28.50
2019-04-14T13:46:07.969Z,29.00
2019-04-14T13:48:37.443Z,29.50
2019-04-14T13:51:07.399Z,29.50
2019-04-14T13:53:36.641Z,29.20
2019-04-14T13:56:06.684Z,29.40
2019-04-14T13:58:38.131Z,28.80
2019-04-14T14:01:07.123Z,28.70
2019-04-14T14:03:36.310Z,28.80
2019-04-14T14:06:05.748Z,28.90
2019-04-14T14:08:34.838Z,29.10
2019-04-14T14:11:08.180Z,29.70
2019-04-14T14:13:38.618Z,29.40
2019-04-14T14:16:24.094Z,29.80
2019-04-14T14:18:58.066Z,30.10
2019-04-14T14:21:43.898Z,30.00
2019-04-14T14:24:17.082Z,30.20
2019-04-14T14:26:50.711Z,30.90
2019-04-14T14:29:19.623Z,30.40
2019-04-14T14:31:49.032Z,31.00
2019-04-14T14:34:18.021Z,31.20
2019-04-14T14:36:47.001Z,30.70
2019-04-14T14:39:17.647Z,31.20
2019-04-14T14:41:46.721Z,30.70
2019-04-14T14:44:15.869Z,30.50
2019-04-14T14:46:58.680Z,30.50
2019-04-14T14:49:29.188Z,30.80
2019-04-14T14:51:59.731Z,31.50
2019-04-14T14:54:28.704Z,31.50
2019-04-14T14:56:57.745Z,31.70
2019-04-14T14:59:26.585Z,32.70
2019-04-14T15:01:55.725Z,32.60
2019-04-14T15:04:24.549Z,33.80
2019-04-14T15:06:53.351Z,34.10
2019-04-14T15:09:22.364Z,33.70
2019-04-14T15:11:51.425Z,33.60
2019-04-14T15:14:20.427Z,34.30
2019-04-14T15:16:49.302Z,34.00
2019-04-14T15:19:18.275Z,34.20
2019-04-14T15:21:47.180Z,34.40
2019-04-14T15:24:16.007Z,34.60
2019-04-14T15:26:44.900Z,35.40
2019-04-14T15:29:13.742Z,34.90
2019-04-14T15:31:42.656Z,35.20
2019-04-14T15:34:11.497Z,35.30
2019-04-14T15:36:40.332Z,35.80
2019-04-14T15:39:09.624Z,36.20
2019-04-14T15:41:38.625Z,35.60
2019-04-14T15:44:07.677Z,35.80
2019-04-14T15:46:36.618Z,35.90
2019-04-14T15:49:05.674Z,36.60
2019-04-14T15:51:34.475Z,36.50
2019-04-14T15:54:03.552Z,36.50
2019-04-14T15:56:36.930Z,36.80
2019-04-14T15:59:13.261Z,37.30
2019-04-14T16:01:55.682Z,38.00
2019-04-14T16:04:42.251Z,38.00
2019-04-14T16:07:21.747Z,38.00
2019-04-14T16:09:52.383Z,37.90
2019-04-14T16:12:38.077Z,37.80
2019-04-14T16:15:26.940Z,38.00
2019-04-14T16:17:57.530Z,37.90
2019-04-14T16:20:33.568Z,37.70
2019-04-14T16:23:02.616Z,38.00
2019-04-14T16:25:42.293Z,37.60
2019-04-14T16:28:24.263Z,37.80
2019-04-14T16:30:54.722Z,38.00
2019-04-14T16:33:34.216Z,38.00
2019-04-14T16:36:03.266Z,38.60
2019-04-14T16:38:32.179Z,38.60
2019-04-14T16:41:01.133Z,38.40
2019-04-14T16:43:29.977Z,39.20
2019-04-14T16:45:58.826Z,38.70
2019-04-14T16:48:28.028Z,38.40
2019-04-14T16:50:59.675Z,38.20
2019-04-14T16:53:28.963Z,39.00
2019-04-14T16:56:02.180Z,38.80
2019-04-14T16:58:38.509Z,39.10
2019-04-14T17:01:27.148Z,39.40
2019-04-14T17:03:56.029Z,39.60
2019-04-14T17:06:25.171Z,39.80
2019-04-14T17:08:54.352Z,39.70
2019-04-14T17:11:23.907Z,40.00
2019-04-14T17:13:54.371Z,40.00
2019-04-14T17:16:31.023Z,40.20
2019-04-14T17:19:10.462Z,40.40
2019-04-14T17:21:44.104Z,40.40
2019-04-14T17:24:17.636Z,40.30
2019-04-14T17:26:51.419Z,41.10
2019-04-14T17:29:39.861Z,40.90
2019-04-14T17:32:13.178Z,41.20
2019-04-14T17:34:55.814Z,40.90
2019-04-14T17:37:29.504Z,40.80
2019-04-14T17:40:06.056Z,40.80
2019-04-14T17:42:54.759Z,41.60
2019-04-14T17:45:25.447Z,41.50
2019-04-14T17:48:02.448Z,40.90
2019-04-14T17:50:40.869Z,41.30
2019-04-14T17:53:11.675Z,41.10
2019-04-14T17:55:51.745Z,41.10
2019-04-14T17:58:23.305Z,41.60
2019-04-14T18:01:07.030Z,41.50
2019-04-14T18:03:38.014Z,41.80
2019-04-14T18:06:09.094Z,41.80
2019-04-14T18:08:46.844Z,41.20
2019-04-14T18:11:17.657Z,41.90
2019-04-14T18:14:04.598Z,41.90
2019-04-14T18:16:41.006Z,42.00
2019-04-14T18:19:11.530Z,42.50
2019-04-14T18:21:40.731Z,41.90
2019-04-14T18:24:09.680Z,41.90
2019-04-14T18:26:38.854Z,42.50
2019-04-14T18:29:15.187Z,42.60
2019-04-14T18:31:51.637Z,42.80
2019-04-14T18:34:22.067Z,42.60
2019-04-14T18:36:58.702Z,42.80
2019-04-14T18:39:44.685Z,43.30
2019-04-14T18:42:31.387Z,43.30
2019-04-14T18:45:18.417Z,43.20
2019-04-14T18:47:49.105Z,44.30
2019-04-14T18:50:19.720Z,43.60
2019-04-14T18:52:53.182Z,44.20
2019-04-14T18:55:29.829Z,44.10
2019-04-14T18:58:03.043Z,44.40
2019-04-14T19:00:33.800Z,44.00
2019-04-14T19:03:02.768Z,44.20
2019-04-14T19:05:31.821Z,45.10
2019-04-14T19:08:01.478Z,44.70
2019-04-14T19:10:30.543Z,44.10
2019-04-14T19:13:01.244Z,44.20
2019-04-14T19:15:34.736Z,44.70
2019-04-14T19:18:08.841Z,45.10
2019-04-14T19:20:38.732Z,45.30
2019-04-14T19:23:07.789Z,45.40
2019-04-14T19:25:37.192Z,45.50
2019-04-14T19:28:06.362Z,45.40
2019-04-14T19:30:35.571Z,45.00
2019-04-14T19:33:04.463Z,46.00
2019-04-14T19:35:33.670Z,46.10
2019-04-14T19:38:02.703Z,45.20
2019-04-14T19:40:31.656Z,45.40
2019-04-14T19:43:00.630Z,46.30
2019-04-14T19:45:29.833Z,45.70
2019-04-14T19:47:58.819Z,46.60
2019-04-14T19:50:28.119Z,46.30
2019-04-14T19:52:57.624Z,46.50
2019-04-14T19:55:27.124Z,46.20
2019-04-14T19:57:56.154Z,46.90
2019-04-14T20:00:24.983Z,47.00
2019-04-14T20:02:54.161Z,46.80
2019-04-14T20:05:23.190Z,47.50
2019-04-14T20:07:52.227Z,47.20
2019-04-14T20:10:21.396Z,47.60
2019-04-14T20:12:50.357Z,46.90
2019-04-14T20:15:21.026Z,47.80
2019-04-14T20:17:51.475Z,47.40
2019-04-14T20:20:21.858Z,47.40
2019-04-14T20:22:55.528Z,48.20
2019-04-14T20:25:42.632Z,47.60
2019-04-14T20:28:13.239Z,47.70
2019-04-14T20:30:44.669Z,48.00
2019-04-14T20:33:14.013Z,47.60
2019-04-14T20:35:43.096Z,48.30
2019-04-14T20:38:12.333Z,48.80
2019-04-14T20:40:41.501Z,48.10
2019-04-14T20:43:10.462Z,49.80
2019-04-14T20:45:39.536Z,49.40
2019-04-14T20:48:08.573Z,49.60
2019-04-14T20:50:37.841Z,49.40
2019-04-14T20:53:06.866Z,49.70
2019-04-14T20:55:46.218Z,50.10
2019-04-14T20:58:07.041Z,50.30
2019-04-14T21:00:35.953Z,50.50
2019-04-14T21:03:12.303Z,50.30
2019-04-14T21:05:51.408Z,50.80
2019-04-14T21:08:36.936Z,51.30
2019-04-14T21:11:13.226Z,51.20
2019-04-14T21:13:51.621Z,51.10
2019-04-14T21:16:37.140Z,51.70
2019-04-14T21:19:17.520Z,52.10
2019-04-14T21:21:47.981Z,53.30
2019-04-14T21:24:27.766Z,51.90
2019-04-14T21:29:43.403Z,52.30
2019-04-14T21:32:13.799Z,51.70
2019-04-14T21:34:53.249Z,52.70
2019-04-14T21:37:26.256Z,52.00
2019-04-14T21:39:56.721Z,51.80
2019-04-14T21:42:25.589Z,52.40
2019-04-14T21:44:54.529Z,51.80
2019-04-14T21:47:23.532Z,51.70
2019-04-14T21:49:52.468Z,51.90
2019-04-14T21:52:32.201Z,52.70
2019-04-14T21:55:01.836Z,52.80
2019-04-14T21:57:32.794Z,52.80
2019-04-14T22:00:06.148Z,52.50
2019-04-14T22:02:52.688Z,53.70
2019-04-14T22:05:41.719Z,54.40
2019-04-14T22:08:27.079Z,53.80
2019-04-14T22:10:57.597Z,54.10
2019-04-14T22:13:26.740Z,54.00
2019-04-14T22:15:55.716Z,53.30
2019-04-14T22:18:24.783Z,53.30
2019-04-14T22:20:53.858Z,53.70
2019-04-14T22:23:22.799Z,54.30
2019-04-14T22:25:51.741Z,54.20
2019-04-14T22:28:21.109Z,53.90
2019-04-14T22:30:50.181Z,54.00
2019-04-14T22:33:19.126Z,53.60
2019-04-14T22:35:48.123Z,54.50
2019-04-14T22:38:17.033Z,54.10
2019-04-14T22:40:45.812Z,54.00
2019-04-14T22:43:14.737Z,53.90
2019-04-14T22:45:43.895Z,53.90
2019-04-14T22:48:12.866Z,54.00
2019-04-14T22:50:41.768Z,54.00
2019-04-14T22:53:10.617Z,54.50
2019-04-14T22:55:39.501Z,54.90
2019-04-14T22:58:08.397Z,53.90
2019-04-14T23:00:55.253Z,54.30
2019-04-14T23:03:40.653Z,54.50
2019-04-14T23:06:11.248Z,55.30
2019-04-14T23:08:53.997Z,54.50
2019-04-14T23:11:41.298Z,55.40
2019-04-14T23:14:14.943Z,55.70
2019-04-14T23:16:57.241Z,55.60
2019-04-14T23:19:36.292Z,55.20
2019-04-14T23:22:09.500Z,55.60
2019-04-14T23:24:40.157Z,55.20
2019-04-14T23:27:09.053Z,55.40
2019-04-14T23:29:37.910Z,55.30
2019-04-14T23:32:07.295Z,54.80
2019-04-14T23:34:36.115Z,56.00
2019-04-14T23:37:05.021Z,55.90
2019-04-14T23:39:33.917Z,55.00
2019-04-14T23:42:02.691Z,55.90
2019-04-14T23:44:31.691Z,56.00
2019-04-14T23:47:00.641Z,56.00
2019-04-14T23:49:29.569Z,55.40
2019-04-14T23:51:58.530Z,55.80
2019-04-14T23:54:27.612Z,56.00
2019-04-14T23:57:05.360Z,55.90
2019-04-14T23:59:26.985Z,55.70
